Time;durP1;ratioP1;P1;durP2;ratioP2;P2;SDS_P1;SDS_P2;PMS_P1;PMS_P2;Temp;Humidity;BMP_temperature;BMP_pressure;BME280_temperature;BME280_humidity;BME280_pressure;Samples;Min_cycle;Max_cycle;Signal;HPM_P1;HPM_P2
2023/03/13 00:01:31;;;;;;;1.10;1.10;;;;;;;5.53;50.32;99437.94;4486489;32;34994;-77
2023/03/13 00:04:00;;;;;;;0.50;0.50;;;;;;;5.29;51.30;99429.06;4472536;32;34563;-77
2023/03/13 00:06:31;;;;;;;0.65;0.65;;;;;;;5.22;51.28;99428.94;4486454;32;33375;-78
2023/03/13 00:09:01;;;;;;;0.60;0.60;;;;;;;5.25;51.62;99442.75;4459687;32;34980;-78
2023/03/13 00:11:29;;;;;;;0.50;0.50;;;;;;;5.02;52.74;99437.31;4472268;32;35933;-78
2023/03/13 00:13:59;;;;;;;0.52;0.52;;;;;;;5.12;53.81;99436.59;4472024;32;33849;-75
2023/03/13 00:16:28;;;;;;;0.50;0.50;;;;;;;4.90;54.52;99430.25;4472450;32;33525;-75
2023/03/13 00:18:57;;;;;;;0.60;0.60;;;;;;;4.81;55.14;99429.28;4472274;32;33785;-75
2023/03/13 00:21:28;;;;;;;0.50;0.50;;;;;;;5.07;54.88;99422.75;4459319;32;35295;-78
2023/03/13 00:23:58;;;;;;;0.57;0.57;;;;;;;4.64;55.77;99422.19;4472046;32;34538;-77
2023/03/13 00:26:27;;;;;;;9.30;3.67;;;;;;;4.84;56.01;99419.03;4458345;32;33589;-75
2023/03/13 00:28:55;;;;;;;0.70;0.70;;;;;;;4.56;56.49;99429.78;4472124;32;33863;-78
2023/03/13 00:31:27;;;;;;;0.50;0.50;;;;;;;4.69;56.02;99427.41;4485896;32;35056;-78
2023/03/13 00:34:00;;;;;;;0.60;0.60;;;;;;;4.78;56.11;99419.78;4472024;32;33425;-79
2023/03/13 00:36:32;;;;;;;1.15;0.60;;;;;;;4.86;55.95;99418.19;4486169;32;33495;-78
2023/03/13 00:39:02;;;;;;;1.65;1.48;;;;;;;4.98;56.02;99412.31;4472448;32;34605;-77
2023/03/13 00:41:31;;;;;;;0.70;0.70;;;;;;;4.78;56.12;99408.59;4486125;32;35205;-79
2023/03/13 00:44:00;;;;;;;0.50;0.50;;;;;;;4.98;55.87;99421.75;4486082;32;35307;-78
2023/03/13 00:46:30;;;;;;;0.50;0.50;;;;;;;4.87;55.89;99412.19;4486232;32;34350;-79
2023/03/13 00:48:59;;;;;;;1.85;1.55;;;;;;;5.07;55.53;99411.56;4486024;32;33875;-77
2023/03/13 00:51:27;;;;;;;0.68;0.68;;;;;;;5.17;55.08;99407.37;4486090;32;35019;-75
2023/03/13 00:53:59;;;;;;;0.55;0.55;;;;;;;5.05;55.51;99406.37;4459164;32;33968;-78
2023/03/13 00:56:28;;;;;;;0.65;0.65;;;;;;;5.18;54.91;99398.78;4472463;32;33502;-79
2023/03/13 00:58:56;;;;;;;3.95;3.35;;;;;;;5.24;54.91;99398.84;4472485;32;33882;-76
2023/03/13 01:01:30;;;;;;;1.08;1.08;;;;;;;5.36;54.47;99383.50;4471964;32;35992;-79
2023/03/13 01:04:03;;;;;;;0.77;0.77;;;;;;;5.44;54.31;99392.22;4486111;32;34587;-78
2023/03/13 01:06:32;;;;;;;0.60;0.60;;;;;;;5.42;54.46;99393.91;4472095;32;34326;-78
2023/03/13 01:09:03;;;;;;;0.68;0.68;;;;;;;5.58;53.99;99389.78;4471971;32;33067;-78
2023/03/13 01:11:34;;;;;;;0.60;0.60;;;;;;;5.72;53.72;99382.16;4472022;32;35170;-78
2023/03/13 01:14:06;;;;;;;0.75;0.75;;;;;;;5.24;55.07;99375.63;4459276;32;34313;-76
2023/03/13 01:16:35;;;;;;;2.50;0.88;;;;;;;5.72;53.74;99379.59;4486019;32;34308;-78
2023/03/13 01:19:06;;;;;;;1.12;1.12;;;;;;;5.38;54.80;99366.31;4458800;32;33785;-78
2023/03/13 01:21:35;;;;;;;0.75;0.75;;;;;;;5.15;55.69;99378.09;4458906;32;34995;-79
2023/03/13 01:24:03;;;;;;;1.45;1.40;;;;;;;5.39;54.68;99372.34;4471853;32;34633;-75
2023/03/13 01:26:32;;;;;;;0.70;0.70;;;;;;;5.25;55.00;99364.47;4471690;32;33641;-78
2023/03/13 01:29:00;;;;;;;0.70;0.70;;;;;;;5.54;54.35;99367.34;4471686;32;33898;-77
2023/03/13 01:31:33;;;;;;;0.52;0.52;;;;;;;5.72;53.94;99371.81;4472008;32;35911;-77
2023/03/13 01:34:06;;;;;;;0.50;0.50;;;;;;;5.37;54.62;99364.59;4472377;32;34548;-78
2023/03/13 01:36:35;;;;;;;0.62;0.62;;;;;;;5.34;54.74;99369.72;4458692;32;32165;-79
2023/03/13 01:39:04;;;;;;;0.50;0.50;;;;;;;5.56;54.72;99359.59;4471449;32;33833;-78
2023/03/13 01:41:32;;;;;;;0.50;0.50;;;;;;;5.51;54.63;99357.84;4485748;32;35120;-75
2023/03/13 01:44:01;;;;;;;0.50;0.50;;;;;;;5.66;54.26;99351.09;4471664;32;35172;-79
2023/03/13 01:46:30;;;;;;;0.65;0.65;;;;;;;5.56;54.71;99355.31;4485937;32;33562;-74
2023/03/13 01:49:18;;;;;;;0.98;0.98;;;;;;;5.43;54.92;99349.16;4471909;32;34036;-74
2023/03/13 01:52:02;;;;;;;0.55;0.55;;;;;;;5.45;54.80;99350.06;4472205;32;35050;-78
2023/03/13 01:55:00;;;;;;;1.70;1.60;;;;;;;5.55;55.08;99352.72;4471972;32;34467;-75
2023/03/13 01:57:35;;;;;;;0.55;0.55;;;;;;;5.71;54.23;99357.16;4476618;32;34239;-77
2023/03/13 02:00:11;;;;;;;0.68;0.68;;;;;;;5.61;54.07;99353.66;4472037;32;33815;-78
2023/03/13 02:02:43;;;;;;;0.50;0.50;;;;;;;5.40;55.19;99346.56;4458479;32;34310;-75
2023/03/13 02:05:13;;;;;;;0.77;0.77;;;;;;;5.88;53.97;99342.69;4471467;32;35296;-74
2023/03/13 02:07:48;;;;;;;0.60;0.60;;;;;;;5.88;53.72;99345.25;4471537;32;34233;-75
2023/03/13 02:10:17;;;;;;;0.75;0.75;;;;;;;5.84;54.02;99343.50;4485366;32;34640;-78
2023/03/13 02:12:46;;;;;;;1.92;1.83;;;;;;;5.69;54.71;99343.38;4471277;32;35992;-78
2023/03/13 02:15:19;;;;;;;2.95;1.77;;;;;;;5.92;53.93;99350.47;4471379;32;34025;-78
2023/03/13 02:17:49;;;;;;;0.77;0.77;;;;;;;5.88;54.17;99342.69;4471764;32;33517;-78
2023/03/13 02:20:22;;;;;;;1.75;1.40;;;;;;;5.80;54.49;99346.91;4471443;32;33855;-79
2023/03/13 02:23:06;;;;;;;0.52;0.52;;;;;;;5.80;54.60;99344.31;4485484;32;34960;-77
2023/03/13 02:25:46;;;;;;;0.50;0.50;;;;;;;5.73;54.40;99337.37;4484877;32;35259;-78
2023/03/13 02:28:16;;;;;;;0.50;0.50;;;;;;;5.83;54.37;99339.19;4471505;32;34459;-78
2023/03/13 02:30:46;;;;;;;0.50;0.50;;;;;;;5.66;55.18;99340.75;4484846;32;34739;-78
2023/03/13 02:33:15;;;;;;;1.85;1.75;;;;;;;5.85;54.17;99347.81;4485183;32;34945;-79
2023/03/13 02:35:45;;;;;;;0.50;0.50;;;;;;;5.71;54.66;99346.84;4471359;32;34140;-75
2023/03/13 02:38:19;;;;;;;1.00;0.93;;;;;;;5.69;55.07;99346.81;4470796;32;34363;-78
2023/03/13 02:40:48;;;;;;;0.73;0.73;;;;;;;5.67;55.21;99352.84;4471216;32;33890;-78
2023/03/13 02:43:25;;;;;;;0.50;0.50;;;;;;;5.60;55.52;99351.03;4471147;32;35113;-79
2023/03/13 02:46:08;;;;;;;0.77;0.77;;;;;;;5.53;55.68;99351.84;4457844;32;33735;-77
2023/03/13 02:48:46;;;;;;;0.60;0.60;;;;;;;5.44;56.52;99348.31;4484799;32;33490;-78
2023/03/13 02:51:19;;;;;;;0.50;0.50;;;;;;;5.37;56.71;99348.25;4472415;32;34759;-78
2023/03/13 02:53:49;;;;;;;0.60;0.60;;;;;;;5.37;56.53;99349.09;4472976;32;35400;-75
2023/03/13 02:56:20;;;;;;;0.50;0.50;;;;;;;5.54;56.42;99356.13;4473224;32;33715;-78
2023/03/13 02:58:48;;;;;;;0.50;0.50;;;;;;;5.57;55.62;99356.19;4472890;32;33547;-77
2023/03/13 03:01:18;;;;;;;0.62;0.62;;;;;;;5.34;56.67;99354.22;4473324;32;33789;-77
2023/03/13 03:03:47;;;;;;;0.68;0.68;;;;;;;5.42;56.76;99362.06;4486917;32;34745;-78
2023/03/13 03:06:16;;;;;;;0.62;0.62;;;;;;;5.33;56.75;99362.84;4486830;32;35273;-78
2023/03/13 03:08:44;;;;;;;0.52;0.52;;;;;;;5.20;57.32;99366.13;4487125;32;33582;-75
2023/03/13 03:11:13;;;;;;;0.65;0.65;;;;;;;5.29;57.62;99363.63;4487136;32;34727;-75
2023/03/13 03:13:42;;;;;;;0.50;0.50;;;;;;;5.21;57.71;99368.72;4486795;32;35122;-76
2023/03/13 03:16:14;;;;;;;0.60;0.60;;;;;;;5.08;58.37;99362.56;4473030;32;34338;-75
2023/03/13 03:18:42;;;;;;;0.60;0.60;;;;;;;5.38;57.65;99355.13;4473036;32;33664;-78
2023/03/13 03:21:10;;;;;;;0.50;0.50;;;;;;;5.43;57.25;99346.56;4472615;32;34791;-77
2023/03/13 03:23:39;;;;;;;0.70;0.70;;;;;;;5.06;58.23;99346.16;4473002;32;35113;-78
2023/03/13 03:26:08;;;;;;;1.87;1.77;;;;;;;4.97;58.89;99356.38;4454290;32;35083;-78
2023/03/13 03:28:36;;;;;;;0.47;0.47;;;;;;;5.00;58.59;99356.44;4454340;32;33526;-77
2023/03/13 03:31:06;;;;;;;0.50;0.50;;;;;;;4.55;59.71;99360.13;4454446;32;34098;-78
2023/03/13 03:33:36;;;;;;;0.50;0.50;;;;;;;4.90;59.04;99362.31;4441878;32;33713;-77
2023/03/13 03:36:07;;;;;;;0.50;0.50;;;;;;;5.01;58.44;99365.91;4441863;32;34471;-78
2023/03/13 03:38:38;;;;;;;0.50;0.50;;;;;;;4.41;60.01;99361.66;4454267;32;33085;-75
2023/03/13 03:41:08;;;;;;;0.88;0.88;;;;;;;4.55;60.18;99352.41;4454474;32;34014;-75
2023/03/13 03:43:37;;;;;;;0.88;0.88;;;;;;;4.59;59.99;99353.31;4441514;32;34382;-75
2023/03/13 03:46:05;;;;;;;0.60;0.60;;;;;;;4.59;60.06;99356.78;4441509;32;32990;-78
2023/03/13 03:48:34;;;;;;;0.50;0.50;;;;;;;5.05;58.95;99352.19;4454520;32;33487;-78
2023/03/13 03:51:05;;;;;;;0.57;0.57;;;;;;;4.17;61.63;99368.19;4454109;32;33906;-78
2023/03/13 03:53:33;;;;;;;0.50;0.50;;;;;;;4.12;62.07;99362.09;4454253;32;34947;-76
2023/03/13 03:56:02;;;;;;;0.60;0.60;;;;;;;4.59;61.15;99371.38;4441803;32;34442;-76
2023/03/13 03:58:30;;;;;;;0.50;0.50;;;;;;;4.50;61.14;99373.00;4454204;32;33692;-75
2023/03/13 04:00:59;;;;;;;9.80;2.15;;;;;;;4.42;61.70;99374.56;4454047;32;33751;-78
2023/03/13 04:03:28;;;;;;;0.50;0.50;;;;;;;3.89;63.16;99377.19;4455150;32;35145;-78
2023/03/13 04:05:56;;;;;;;0.60;0.60;;;;;;;4.29;62.23;99380.38;4453929;32;35233;-78
2023/03/13 04:08:25;;;;;;;0.70;0.70;;;;;;;4.30;62.34;99383.00;4441626;32;33823;-78
2023/03/13 04:10:53;;;;;;;0.75;0.75;;;;;;;4.16;62.85;99387.97;4448090;32;34755;-78
2023/03/13 04:13:22;;;;;;;2.95;2.15;;;;;;;4.36;62.74;99388.25;4438813;32;35226;-74
2023/03/13 04:15:50;;;;;;;0.70;0.70;;;;;;;4.63;61.66;99376.59;4439723;32;34336;-75
2023/03/13 04:18:19;;;;;;;0.60;0.60;;;;;;;4.43;62.23;99380.59;4439710;32;34153;-75
2023/03/13 04:20:47;;;;;;;1.25;1.25;;;;;;;4.48;61.90;99378.94;4439783;32;33987;-79
2023/03/13 04:23:16;;;;;;;0.60;0.60;;;;;;;4.47;61.70;99382.38;4439492;32;34774;-78
2023/03/13 04:25:44;;;;;;;0.50;0.50;;;;;;;4.37;62.62;99389.97;4466051;32;34411;-75
2023/03/13 04:28:12;;;;;;;0.60;0.60;;;;;;;4.39;61.84;99390.00;4470483;32;34217;-75
2023/03/13 04:30:41;;;;;;;0.50;0.50;;;;;;;4.36;62.17;99390.84;4470714;32;34726;-75
2023/03/13 04:33:10;;;;;;;0.50;0.50;;;;;;;4.55;61.77;99398.81;4470748;32;34960;-75
2023/03/13 04:35:39;;;;;;;0.50;0.50;;;;;;;4.70;61.45;99406.78;4470793;32;34480;-79
2023/03/13 04:38:08;;;;;;;1.45;1.35;;;;;;;4.47;62.20;99403.88;4457096;32;34204;-79
2023/03/13 04:40:37;;;;;;;0.50;0.50;;;;;;;4.26;63.14;99407.00;4470814;32;34671;-79
2023/03/13 04:43:05;;;;;;;0.77;0.77;;;;;;;4.56;61.73;99408.31;4470345;32;35754;-79
2023/03/13 04:45:34;;;;;;;0.60;0.60;;;;;;;4.42;63.04;99402.09;4470643;32;34415;-78
2023/03/13 04:48:03;;;;;;;0.57;0.57;;;;;;;4.50;63.08;99395.31;4470601;32;33454;-78
2023/03/13 04:50:32;;;;;;;0.68;0.68;;;;;;;4.70;61.56;99393.03;4470622;32;33847;-78
2023/03/13 04:53:00;;;;;;;0.98;0.98;;;;;;;4.63;61.53;99394.66;4456706;32;35588;-78
2023/03/13 04:55:29;;;;;;;0.80;0.80;;;;;;;4.55;61.37;99396.25;4470599;32;34478;-75
2023/03/13 04:57:58;;;;;;;1.92;1.83;;;;;;;4.03;62.25;99400.63;4474504;32;33639;-79
2023/03/13 05:00:26;;;;;;;0.50;0.50;;;;;;;4.59;60.96;99407.47;4469403;32;33905;-79
2023/03/13 05:02:56;;;;;;;0.50;0.50;;;;;;;4.78;59.68;99417.19;4472117;32;36503;-78
2023/03/13 05:05:25;;;;;;;0.50;0.50;;;;;;;5.01;59.31;99411.47;4486411;32;34483;-79
2023/03/13 05:07:53;;;;;;;1.65;0.88;;;;;;;4.65;60.32;99413.59;4486178;32;33860;-77
2023/03/13 05:10:24;;;;;;;0.50;0.50;;;;;;;4.70;59.96;99411.09;4486243;32;33319;-79
2023/03/13 05:12:57;;;;;;;1.15;1.15;;;;;;;4.98;59.27;99407.16;4485302;32;35166;-78
2023/03/13 05:15:26;;;;;;;0.62;0.62;;;;;;;4.99;59.01;99408.00;4486177;32;34429;-79
2023/03/13 05:17:54;;;;;;;0.52;0.52;;;;;;;4.84;59.81;99411.28;4485430;32;33444;-72
2023/03/13 05:20:23;;;;;;;0.75;0.75;;;;;;;4.63;60.40;99417.88;4485109;32;33872;-72
2023/03/13 05:22:52;;;;;;;0.52;0.52;;;;;;;4.82;59.87;99418.09;4471384;32;35288;-72
2023/03/13 05:25:20;;;;;;;0.50;0.50;;;;;;;5.17;58.47;99408.25;4485476;32;34393;-72
2023/03/13 05:27:49;;;;;;;0.50;0.50;;;;;;;4.99;58.80;99419.19;4471630;32;33417;-72
2023/03/13 05:30:18;;;;;;;0.60;0.60;;;;;;;4.99;58.54;99429.53;4458827;32;34116;-71
2023/03/13 05:32:47;;;;;;;1.15;1.12;;;;;;;4.98;58.83;99432.97;4485918;32;34959;-72
2023/03/13 05:35:15;;;;;;;5.75;4.30;;;;;;;4.97;58.78;99436.37;4485709;32;35221;-71
2023/03/13 05:37:45;;;;;;;1.25;1.17;;;;;;;4.82;59.79;99436.16;4486148;32;33288;-72
2023/03/13 05:40:14;;;;;;;1.50;1.40;;;;;;;4.89;59.30;99435.44;4485976;32;34580;-72
2023/03/13 05:42:42;;;;;;;0.50;0.50;;;;;;;5.17;58.76;99430.59;4472024;32;34981;-72
2023/03/13 05:45:11;;;;;;;0.57;0.57;;;;;;;5.28;58.05;99431.63;4459082;32;33807;-72
2023/03/13 05:47:40;;;;;;;1.02;1.02;;;;;;;5.02;58.32;99428.72;4485574;32;34411;-73
2023/03/13 05:50:09;;;;;;;0.50;0.50;;;;;;;5.44;57.62;99432.66;4484915;32;34083;-84
2023/03/13 05:52:38;;;;;;;0.73;0.73;;;;;;;5.30;57.48;99428.19;4485031;32;35047;-72
2023/03/13 05:55:08;;;;;;;1.42;1.10;;;;;;;5.28;57.46;99436.78;4485782;32;34561;-72
2023/03/13 05:57:38;;;;;;;0.45;0.45;;;;;;;5.33;57.43;99432.56;4471541;32;33527;-72
2023/03/13 06:00:07;;;;;;;1.20;1.20;;;;;;;5.07;57.81;99438.25;4484386;32;33816;-72
2023/03/13 06:02:40;;;;;;;0.60;0.60;;;;;;;5.38;56.79;99436.03;4485456;32;35104;-72
2023/03/13 06:05:09;;;;;;;0.50;0.50;;;;;;;5.49;56.34;99441.34;4484777;32;34509;-72
2023/03/13 06:07:38;;;;;;;0.50;0.50;;;;;;;5.15;58.04;99432.31;4470430;32;33490;-71
2023/03/13 06:10:07;;;;;;;0.50;0.50;;;;;;;4.99;58.40;99436.41;4470680;32;34160;-71
2023/03/13 06:12:35;;;;;;;0.50;0.50;;;;;;;5.32;56.50;99429.06;4485487;32;35966;-72
2023/03/13 06:15:06;;;;;;;0.85;0.85;;;;;;;5.44;56.40;99433.53;4485452;32;35030;-71
2023/03/13 06:17:37;;;;;;;0.60;0.60;;;;;;;5.80;55.54;99426.16;4484870;32;33423;-83
2023/03/13 06:20:05;;;;;;;1.10;1.10;;;;;;;5.75;55.58;99417.47;4484887;32;34616;-78
2023/03/13 06:22:33;;;;;;;0.40;0.40;;;;;;;6.20;54.00;99421.37;4484092;32;36500;-72
2023/03/13 06:25:03;;;;;;;0.40;0.40;;;;;;;6.18;53.77;99423.94;4457745;32;34484;-72
2023/03/13 06:27:31;;;;;;;1.75;1.48;;;;;;;6.53;52.84;99419.88;4486125;32;34326;-72
2023/03/13 06:29:59;;;;;;;0.80;0.80;;;;;;;6.84;51.64;99420.94;4472260;32;33864;-72
2023/03/13 06:32:28;;;;;;;0.50;0.50;;;;;;;6.95;51.64;99410.66;4471614;32;35347;-72
2023/03/13 06:34:56;;;;;;;0.57;0.57;;;;;;;6.83;51.65;99419.25;4471903;32;34030;-71
2023/03/13 06:37:24;;;;;;;0.70;0.70;;;;;;;7.15;50.52;99408.19;4471808;32;32887;-73
2023/03/13 06:39:54;;;;;;;0.40;0.40;;;;;;;7.51;50.14;99414.34;4485738;32;34090;-71
2023/03/13 06:42:25;;;;;;;0.60;0.60;;;;;;;8.05;48.69;99417.88;4484217;32;35060;-71
2023/03/13 06:44:54;;;;;;;1.65;1.27;;;;;;;8.04;48.19;99416.16;4459106;32;33027;-71
2023/03/13 06:47:22;;;;;;;0.77;0.77;;;;;;;8.03;47.38;99417.03;4471697;32;33509;-71
2023/03/13 06:49:50;;;;;;;2.33;1.80;;;;;;;8.44;45.98;99420.50;4472123;32;33771;-71
2023/03/13 06:52:18;;;;;;;0.70;0.70;;;;;;;8.36;45.70;99430.84;4486104;32;35853;-73
2023/03/13 06:54:48;;;;;;;0.60;0.60;;;;;;;8.00;46.79;99427.38;4485999;32;34196;-71
2023/03/13 06:57:16;;;;;;;1.10;1.10;;;;;;;7.48;48.07;99427.28;4471539;32;33475;-84
2023/03/13 06:59:45;;;;;;;0.50;0.50;;;;;;;7.08;47.83;99440.06;4471550;32;34004;-75
2023/03/13 07:02:14;;;;;;;0.68;0.68;;;;;;;7.03;49.85;99420.19;4486730;32;35042;-78
2023/03/13 07:04:45;;;;;;;0.70;0.70;;;;;;;7.53;48.20;99415.19;4486984;32;35322;-74
2023/03/13 07:07:13;;;;;;;0.65;0.65;;;;;;;8.17;46.73;99427.41;4486961;32;33451;-74
2023/03/13 07:09:56;;;;;;;0.60;0.60;;;;;;;7.08;47.90;99409.88;4487010;32;34352;-74
2023/03/13 07:12:26;;;;;;;0.40;0.40;;;;;;;7.67;47.28;99420.41;4486779;32;35121;-74
2023/03/13 07:14:54;;;;;;;1.05;1.05;;;;;;;7.67;48.02;99413.50;4472847;32;35141;-74
2023/03/13 07:17:23;;;;;;;0.68;0.68;;;;;;;7.98;46.29;99418.75;4487200;32;33530;-74
2023/03/13 07:19:51;;;;;;;0.60;0.60;;;;;;;8.10;46.19;99412.69;4472835;32;33906;-74
2023/03/13 07:22:19;;;;;;;0.40;0.40;;;;;;;8.60;46.04;99416.16;4487051;32;34937;-75
2023/03/13 07:24:51;;;;;;;0.40;0.40;;;;;;;8.65;45.11;99409.25;4485871;32;35397;-75
2023/03/13 07:27:20;;;;;;;1.58;1.48;;;;;;;7.59;46.30;99408.31;4484903;32;33842;-75
2023/03/13 07:29:50;;;;;;;0.50;0.50;;;;;;;8.26;45.42;99406.66;4486013;32;33069;-74
2023/03/13 07:32:18;;;;;;;0.50;0.50;;;;;;;8.72;45.31;99418.75;4470779;32;34933;-75
2023/03/13 07:34:47;;;;;;;0.60;0.60;;;;;;;9.24;43.19;99415.97;4484393;32;34417;-75
2023/03/13 07:37:17;;;;;;;0.62;0.62;;;;;;;8.23;45.69;99416.16;4486253;32;34260;-74
2023/03/13 07:39:45;;;;;;;0.47;0.47;;;;;;;8.89;45.46;99416.09;4486772;32;34007;-74
2023/03/13 07:42:13;;;;;;;0.70;0.70;;;;;;;8.92;44.48;99400.50;4472495;32;33636;-74
2023/03/13 07:44:41;;;;;;;0.40;0.40;;;;;;;8.51;45.23;99396.28;4486674;32;34458;-75
2023/03/13 07:47:10;;;;;;;0.88;0.85;;;;;;;8.30;44.91;99412.69;4472403;32;33562;-74
2023/03/13 07:49:41;;;;;;;1.23;1.12;;;;;;;8.53;44.88;99398.00;4486622;32;33890;-73
2023/03/13 07:52:10;;;;;;;0.60;0.60;;;;;;;8.42;45.05;99398.84;4486616;32;35220;-74
2023/03/13 07:54:38;;;;;;;0.50;0.50;;;;;;;8.36;45.27;99391.94;4486560;32;34460;-74
2023/03/13 07:57:06;;;;;;;0.88;0.88;;;;;;;9.35;43.85;99386.47;4485873;32;34191;-76
2023/03/13 07:59:35;;;;;;;0.50;0.50;;;;;;;9.28;42.55;99398.63;4472426;32;34007;-74
2023/03/13 08:02:03;;;;;;;0.43;0.43;;;;;;;9.29;43.39;99388.22;4472504;32;35054;-75
2023/03/13 08:04:32;;;;;;;0.60;0.60;;;;;;;10.07;42.23;99384.25;4471411;32;34313;-74
2023/03/13 08:07:01;;;;;;;0.77;0.77;;;;;;;10.48;41.74;99379.59;4486575;32;34264;-75
2023/03/13 08:09:32;;;;;;;0.77;0.77;;;;;;;10.04;41.59;99373.00;4485114;32;34807;-75
2023/03/13 08:12:00;;;;;;;1.95;1.85;;;;;;;11.30;39.46;99361.31;4486335;32;34912;-73
2023/03/13 08:14:30;;;;;;;0.73;0.73;;;;;;;10.26;40.93;99363.31;4486288;32;34568;-75
2023/03/13 08:16:59;;;;;;;0.40;0.40;;;;;;;10.11;41.06;99348.69;4459644;32;35066;-76
2023/03/13 08:19:28;;;;;;;0.40;0.40;;;;;;;9.84;40.70;99354.97;4472451;32;33871;-76
2023/03/13 08:21:56;;;;;;;0.70;0.70;;;;;;;10.43;41.17;99351.03;4486223;32;35995;-77
2023/03/13 08:24:24;;;;;;;0.93;0.93;;;;;;;10.20;41.19;99358.13;4485967;32;35301;-83
2023/03/13 08:26:54;;;;;;;0.77;0.77;;;;;;;10.39;41.09;99349.34;4486374;32;34215;-75
2023/03/13 08:29:22;;;;;;;0.32;0.32;;;;;;;10.96;40.61;99345.25;4472218;32;34761;-75
2023/03/13 08:31:51;;;;;;;0.52;0.43;;;;;;;10.90;39.26;99346.16;4486284;32;35057;-77
2023/03/13 08:34:20;;;;;;;0.77;0.77;;;;;;;10.97;39.57;99344.34;4486292;32;34577;-73
2023/03/13 08:36:48;;;;;;;0.30;0.30;;;;;;;11.67;39.00;99341.66;4486560;32;33412;-73
2023/03/13 08:39:18;;;;;;;0.40;0.40;;;;;;;11.59;38.41;99346.97;4486279;32;33815;-72
2023/03/13 08:41:47;;;;;;;0.93;0.93;;;;;;;11.89;38.01;99340.41;4472600;32;34264;-73
2023/03/13 08:44:17;;;;;;;1.15;1.15;;;;;;;11.80;38.11;99332.75;4486076;32;34341;-76
2023/03/13 08:46:46;;;;;;;0.55;0.55;;;;;;;12.17;36.86;99339.16;4486149;32;34247;-82
2023/03/13 08:49:16;;;;;;;0.85;0.85;;;;;;;11.76;36.80;99339.75;4471639;32;35234;-78
2023/03/13 08:51:44;;;;;;;1.42;1.33;;;;;;;11.90;37.12;99323.03;4486188;32;35393;-75
2023/03/13 08:54:12;;;;;;;0.50;0.50;;;;;;;12.52;36.87;99328.06;4486138;32;34448;-78
2023/03/13 08:56:42;;;;;;;0.40;0.40;;;;;;;11.94;36.85;99328.19;4486223;32;34277;-78
2023/03/13 08:59:11;;;;;;;0.77;0.77;;;;;;;11.99;36.75;99324.66;4472307;32;33945;-88
2023/03/13 09:01:39;;;;;;;1.20;1.10;;;;;;;11.94;36.72;99322.97;4486113;32;35846;-82
2023/03/13 09:04:08;;;;;;;0.30;0.30;;;;;;;11.71;36.60;99330.28;4472017;32;34594;-76
2023/03/13 09:06:37;;;;;;;0.32;0.32;;;;;;;12.21;37.69;99318.19;4472189;32;33417;-77
2023/03/13 09:09:06;;;;;;;0.30;0.30;;;;;;;12.85;34.58;99320.47;4459354;32;33912;-74
2023/03/13 09:11:38;;;;;;;0.30;0.30;;;;;;;12.12;36.19;99316.63;4485988;32;34998;-77
2023/03/13 09:14:07;;;;;;;0.62;0.62;;;;;;;12.58;35.17;99319.25;4486003;32;33912;-75
2023/03/13 09:16:36;;;;;;;1.92;1.65;;;;;;;12.03;36.06;99308.06;4472137;32;34419;-76
2023/03/13 09:19:05;;;;;;;0.62;0.52;;;;;;;12.12;36.24;99310.50;4485937;32;34735;-79
2023/03/13 09:21:36;;;;;;;0.43;0.43;;;;;;;12.93;35.08;99310.69;4485950;32;34925;-76
2023/03/13 09:24:06;;;;;;;0.50;0.50;;;;;;;14.10;34.30;99308.03;4472072;32;35061;-82
2023/03/13 09:26:34;;;;;;;0.57;0.57;;;;;;;14.92;31.79;99298.84;4485951;32;34225;-75
2023/03/13 09:29:02;;;;;;;0.85;0.82;;;;;;;14.34;33.35;99298.66;4471857;32;34035;-76
2023/03/13 09:31:32;;;;;;;0.90;0.90;;;;;;;13.90;33.61;99295.44;4471894;32;35984;-80
2023/03/13 09:34:01;;;;;;;0.57;0.57;;;;;;;13.71;33.09;99288.94;4472077;32;34567;-77
2023/03/13 09:36:29;;;;;;;0.40;0.40;;;;;;;14.50;32.45;99296.50;4485910;32;34358;-77
2023/03/13 09:38:59;;;;;;;2.90;2.40;;;;;;;14.12;32.24;99310.62;4471771;32;33818;-85
2023/03/13 09:41:38;;;;;;;1.08;1.05;;;;;;;14.42;32.38;99295.84;4471473;32;34996;-76
2023/03/13 09:44:13;;;;;;;1.87;1.75;;;;;;;15.24;31.95;99283.91;4469678;32;34135;-79
2023/03/13 09:47:05;;;;;;;0.32;0.32;;;;;;;16.06;29.81;99290.03;4483837;32;34146;-77
2023/03/13 09:49:40;;;;;;;1.95;1.65;;;;;;;16.73;30.06;99280.69;4469828;32;33389;-75
2023/03/13 09:52:22;;;;;;;0.98;0.90;;;;;;;16.61;29.08;99281.97;4470494;32;35056;-76
2023/03/13 09:55:09;;;;;;;0.60;0.60;;;;;;;16.62;29.41;99298.59;4484011;32;32540;-81
2023/03/13 09:57:39;;;;;;;;;;;;;;;17.36;27.15;99280.91;4485965;32;33660;-77
2023/03/13 10:00:28;;;;;;;1.08;1.05;;;;;;;18.36;26.46;99282.09;4458485;32;33972;-77
2023/03/13 10:03:02;;;;;;;0.65;0.65;;;;;;;18.05;26.06;99266.72;4471579;32;35022;-84
2023/03/13 10:05:32;;;;;;;0.77;0.77;;;;;;;18.27;26.05;99257.91;4470788;32;35360;-76
2023/03/13 10:08:12;;;;;;;5.97;0.70;;;;;;;18.12;27.25;99256.78;4485569;32;33652;-76
2023/03/13 10:10:47;;;;;;;0.40;0.40;;;;;;;17.47;26.49;99251.56;4470892;32;33953;-75
2023/03/13 10:13:27;;;;;;;1.12;0.85;;;;;;;17.65;27.17;99241.16;4485429;32;35152;-77
2023/03/13 10:16:03;;;;;;;0.80;0.80;;;;;;;17.17;27.11;99241.34;4471738;32;35322;-77
2023/03/13 10:18:32;;;;;;;0.65;0.65;;;;;;;18.04;26.49;99240.47;4471461;32;34239;-76
2023/03/13 10:21:16;;;;;;;1.17;1.10;;;;;;;18.91;25.73;99244.47;4485373;32;33989;-76
2023/03/13 10:23:53;;;;;;;1.27;1.12;;;;;;;19.78;24.29;99246.50;4470796;32;35162;-80
2023/03/13 10:26:34;;;;;;;0.50;0.50;;;;;;;20.19;23.66;99250.59;4458781;32;34167;-77
2023/03/13 10:29:30;;;;;;;0.57;0.57;;;;;;;20.01;24.67;99241.84;4471650;32;33553;-76
2023/03/13 10:32:04;;;;;;;0.85;0.85;;;;;;;20.73;22.97;99229.28;4482357;32;33776;-84
2023/03/13 10:34:45;;;;;;;1.92;1.83;;;;;;;20.41;23.53;99245.06;4471046;32;35982;-78
2023/03/13 10:37:18;;;;;;;0.35;0.35;;;;;;;19.11;24.92;99233.00;4485096;32;34373;-77
2023/03/13 10:39:47;;;;;;;1.02;0.95;;;;;;;20.34;23.67;99239.22;4471119;32;33552;-81
2023/03/13 10:42:26;;;;;;;1.33;1.23;;;;;;;20.58;23.60;99237.09;4484968;32;34595;-77
2023/03/13 10:44:58;;;;;;;0.80;0.80;;;;;;;19.49;24.44;99235.56;4485108;32;35931;-81
2023/03/13 10:47:27;;;;;;;1.33;0.68;;;;;;;19.39;24.59;99231.66;4470893;32;34369;-84
2023/03/13 10:49:56;;;;;;;0.30;0.30;;;;;;;18.41;25.22;99223.91;4470955;32;33669;-77
2023/03/13 10:52:29;;;;;;;1.35;1.08;;;;;;;19.58;24.74;99217.56;4485237;32;34134;-77
2023/03/13 10:55:05;;;;;;;1.23;1.12;;;;;;;21.48;24.54;99213.69;4470856;32;35672;-76
2023/03/13 10:57:34;;;;;;;1.15;1.05;;;;;;;21.76;22.67;99205.81;4485022;32;34525;-76
2023/03/13 11:00:21;;;;;;;0.35;0.35;;;;;;;22.63;22.15;99201.47;4484852;32;33424;-77
2023/03/13 11:02:49;;;;;;;1.12;1.02;;;;;;;22.39;22.33;99203.81;4484740;32;34622;-82
2023/03/13 11:05:27;;;;;;;0.52;0.43;;;;;;;23.22;20.84;99209.22;4470515;32;33434;-82
2023/03/13 11:07:55;;;;;;;0.85;0.85;;;;;;;20.89;22.79;99179.84;4484717;32;35124;-75
2023/03/13 11:10:26;;;;;;;1.15;1.05;;;;;;;21.06;23.19;99183.38;4484608;32;33621;-77
2023/03/13 11:12:55;;;;;;;1.35;1.25;;;;;;;21.24;22.73;99198.19;4486729;32;34013;-77
2023/03/13 11:15:44;;;;;;;9.27;4.70;;;;;;;22.00;21.88;99170.81;4473050;32;35284;-77
2023/03/13 11:18:37;;;;;;;0.20;0.20;;;;;;;22.00;22.01;99169.97;4472793;32;35279;-76
2023/03/13 11:21:08;;;;;;;0.25;0.25;;;;;;;21.90;22.79;99169.66;4486841;32;33519;-79
2023/03/13 11:23:52;;;;;;;1.02;1.02;;;;;;;22.38;21.79;99174.72;4473929;32;34700;-75
2023/03/13 11:26:31;;;;;;;0.60;0.60;;;;;;;21.98;22.37;99172.72;4486719;32;36112;-81
2023/03/13 11:29:17;;;;;;;1.10;1.08;;;;;;;21.39;22.98;99168.19;4486805;32;34386;-80
2023/03/13 11:31:50;;;;;;;1.40;1.30;;;;;;;21.60;23.22;99154.66;4486840;32;33431;-82
2023/03/13 11:34:26;;;;;;;1.90;0.93;;;;;;;21.19;23.28;99164.06;4486662;32;34735;-80
2023/03/13 11:37:07;;;;;;;0.52;0.52;;;;;;;21.85;22.71;99150.53;4472363;32;35311;-79
2023/03/13 11:40:05;;;;;;;1.33;1.25;;;;;;;20.80;24.30;99159.19;4487532;32;35134;-81
2023/03/13 11:42:58;;;;;;;4.87;1.65;;;;;;;20.87;24.61;99146.50;4486676;32;33542;-79
2023/03/13 11:45:48;;;;;;;0.73;0.73;;;;;;;20.20;25.59;99158.00;4486429;32;34051;-80
2023/03/13 11:48:35;;;;;;;1.20;1.10;;;;;;;21.89;23.59;99144.12;4486542;32;35231;-77
2023/03/13 11:51:16;;;;;;;0.75;0.75;;;;;;;21.83;24.24;99152.41;4486479;32;34847;-79
2023/03/13 11:54:28;;;;;;;1.73;0.77;;;;;;;21.35;23.95;99137.53;4485821;32;34354;-81
2023/03/13 11:57:04;;;;;;;0.62;0.62;;;;;;;20.82;24.67;99123.78;4483408;32;34013;-77
2023/03/13 11:59:42;;;;;;;4.78;1.80;;;;;;;19.43;26.97;99114.41;4470476;32;35546;-77